Time;durP1;ratioP1;P1;durP2;ratioP2;P2;SDS_P1;SDS_P2;PMS_P1;PMS_P2;Temp;Humidity;BMP_temperature;BMP_pressure;BME280_temperature;BME280_humidity;BME280_pressure;Samples;Min_cycle;Max_cycle;Signal;HPM_P1;HPM_P2
2022/12/01 00:01:31;;;;;;;44.67;15.23;;;;;;;-5.72;100.00;101352.44;5154035;27;20111;-48
2022/12/01 00:03:58;;;;;;;39.63;16.63;;;;;;;-5.76;100.00;101345.88;5153856;27;20051;-48
2022/12/01 00:06:24;;;;;;;42.80;17.17;;;;;;;-5.61;100.00;101351.84;5154041;27;20912;-46
2022/12/01 00:11:37;;;;;;;40.45;15.32;;;;;;;-5.53;100.00;101340.13;5153631;27;20069;-48
2022/12/01 00:14:05;;;;;;;41.53;17.33;;;;;;;-5.29;100.00;101342.19;5153540;27;20065;-47
2022/12/01 00:16:31;;;;;;;37.60;15.68;;;;;;;-5.26;100.00;101330.25;5153603;27;20079;-49
2022/12/01 00:18:59;;;;;;;38.03;15.55;;;;;;;-5.51;100.00;101311.34;5153545;27;20051;-47
2022/12/01 00:21:26;;;;;;;42.85;15.30;;;;;;;-5.25;100.00;101319.34;5153112;27;20141;-49
2022/12/01 00:23:54;;;;;;;46.20;17.65;;;;;;;-5.33;100.00;101313.38;5153239;27;20087;-50
2022/12/01 00:26:21;;;;;;;38.30;15.57;;;;;;;-5.42;100.00;101301.28;5153550;27;20161;-49
2022/12/01 00:28:49;;;;;;;45.75;15.88;;;;;;;-5.44;100.00;101285.44;5153425;27;20102;-47
2022/12/01 00:31:15;;;;;;;32.78;13.90;;;;;;;-5.39;100.00;101298.19;5153464;27;20046;-47
2022/12/01 00:33:41;;;;;;;33.08;15.50;;;;;;;-5.55;100.00;101296.75;5153262;27;20055;-47
2022/12/01 00:36:09;;;;;;;39.33;15.40;;;;;;;-5.62;100.00;101303.94;5153052;27;20047;-47
2022/12/01 00:38:35;;;;;;;36.28;15.02;;;;;;;-5.52;100.00;101313.19;5153562;27;20046;-47
2022/12/01 00:41:02;;;;;;;38.95;15.77;;;;;;;-5.32;100.00;101317.72;5153113;27;20077;-47
2022/12/01 00:43:29;;;;;;;43.95;17.35;;;;;;;-5.74;100.00;101304.53;5152936;27;20411;-46
2022/12/01 00:45:55;;;;;;;34.08;13.52;;;;;;;-5.89;100.00;101305.78;5152957;27;20099;-49
2022/12/01 00:48:22;;;;;;;35.65;14.60;;;;;;;-5.68;100.00;101311.75;5152862;27;20047;-48
2022/12/01 00:50:50;;;;;;;31.50;13.13;;;;;;;-5.60;100.00;101316.06;5153139;27;20050;-46
2022/12/01 00:53:17;;;;;;;46.85;16.85;;;;;;;-5.67;100.00;101316.06;5152770;27;20510;-48
2022/12/01 00:55:43;;;;;;;41.53;17.63;;;;;;;-5.62;100.00;101339.50;5153275;27;20081;-46
2022/12/01 00:58:10;;;;;;;32.78;14.55;;;;;;;-5.33;100.00;101342.78;5152624;27;20137;-48
2022/12/01 01:00:37;;;;;;;41.08;15.45;;;;;;;-5.47;100.00;101318.72;5152939;27;20047;-47
2022/12/01 01:03:03;;;;;;;47.47;15.50;;;;;;;-5.02;100.00;101313.56;5152574;27;20096;-46
2022/12/01 01:05:30;;;;;;;36.03;15.93;;;;;;;-5.15;100.00;101304.72;5152867;27;20051;-48
2022/12/01 01:07:56;;;;;;;31.83;14.30;;;;;;;-5.22;100.00;101286.84;5152520;27;20057;-47
2022/12/01 01:10:23;;;;;;;31.55;13.02;;;;;;;-5.20;100.00;101262.56;5152515;27;20047;-47
2022/12/01 01:12:49;;;;;;;35.72;12.35;;;;;;;-5.71;100.00;101226.66;5152522;27;20047;-46
2022/12/01 01:15:15;;;;;;;31.05;12.98;;;;;;;-5.62;100.00;101242.50;5152367;27;20046;-47
2022/12/01 01:17:42;;;;;;;30.25;12.70;;;;;;;-5.62;100.00;101237.97;5152790;27;20057;-49
2022/12/01 01:20:09;;;;;;;30.80;12.73;;;;;;;-5.32;100.00;101226.81;5152193;27;20057;-46
2022/12/01 01:22:35;;;;;;;30.33;11.73;;;;;;;-5.74;100.00;101204.88;5152343;27;20191;-46
2022/12/01 01:25:02;;;;;;;28.70;12.07;;;;;;;-5.74;100.00;101226.25;5152280;27;20137;-47
2022/12/01 01:27:29;;;;;;;32.70;13.05;;;;;;;-5.46;100.00;101253.56;5152595;27;20541;-46
2022/12/01 01:29:55;;;;;;;28.88;11.90;;;;;;;-5.67;100.00;101235.91;5152109;27;20403;-46
2022/12/01 01:32:21;;;;;;;30.58;12.65;;;;;;;-5.98;100.00;101225.06;5152344;27;20046;-46
2022/12/01 01:34:48;;;;;;;31.10;12.25;;;;;;;-5.83;100.00;101244.34;5152074;27;20074;-46
2022/12/01 01:37:14;;;;;;;33.22;13.57;;;;;;;-5.79;100.00;101250.09;5152017;27;20090;-46
2022/12/01 01:39:40;;;;;;;35.00;12.70;;;;;;;-5.50;100.00;101247.00;5152156;27;20054;-47
2022/12/01 01:42:09;;;;;;;40.05;14.02;;;;;;;-5.28;100.00;101252.91;5152045;27;20057;-47
2022/12/01 01:44:51;;;;;;;36.90;14.43;;;;;;;-5.44;100.00;101211.41;5152071;27;20054;-47
2022/12/01 01:47:21;;;;;;;36.50;14.57;;;;;;;-5.51;100.00;101201.75;5151749;27;20043;-48
2022/12/01 01:49:48;;;;;;;35.05;13.68;;;;;;;-5.67;100.00;101193.16;5152036;27;20046;-47
2022/12/01 01:52:15;;;;;;;32.30;13.07;;;;;;;-5.70;100.00;101203.44;5151787;27;20123;-48
2022/12/01 01:54:47;;;;;;;21.27;10.63;;;;;;;-6.02;100.00;101199.81;5152251;27;20046;-46
2022/12/01 01:57:16;;;;;;;34.00;14.07;;;;;;;-5.64;100.00;101233.84;5151049;27;20057;-47
2022/12/01 01:59:45;;;;;;;30.40;13.50;;;;;;;-5.86;100.00;101218.06;5151892;27;20043;-47
2022/12/01 02:02:12;;;;;;;27.88;12.52;;;;;;;-5.84;100.00;101220.50;5151844;27;20055;-48
2022/12/01 02:04:41;;;;;;;30.77;12.95;;;;;;;-5.97;100.00;101224.84;5151657;27;20137;-49
2022/12/01 02:07:08;;;;;;;32.78;13.10;;;;;;;-5.67;100.00;101251.94;5151926;27;20047;-47
2022/12/01 02:09:35;;;;;;;26.42;11.73;;;;;;;-5.88;100.00;101228.13;5151655;27;20050;-47
2022/12/01 02:12:13;;;;;;;29.92;12.52;;;;;;;-5.59;100.00;101248.25;5151689;27;20099;-46
2022/12/01 02:14:56;;;;;;;31.67;12.18;;;;;;;-6.16;100.00;101210.47;5151445;27;20047;-46
2022/12/01 02:17:30;;;;;;;30.73;12.15;;;;;;;-5.71;100.00;101228.50;5151575;27;20497;-46
2022/12/01 02:20:35;;;;;;;31.70;12.00;;;;;;;-5.63;100.00;101214.94;5151312;27;20096;-47
2022/12/01 02:23:29;;;;;;;28.88;11.77;;;;;;;-5.73;100.00;101203.84;5151478;27;20532;-47
2022/12/01 02:26:12;;;;;;;31.02;11.98;;;;;;;-5.82;100.00;101189.06;5151684;27;20168;-47
2022/12/01 02:28:56;;;;;;;26.92;11.82;;;;;;;-5.95;100.00;101176.59;5151424;27;20499;-46
2022/12/01 02:31:26;;;;;;;;;;;;;;;-5.85;100.00;101176.13;5151632;27;20061;-46
2022/12/01 02:33:57;;;;;;;30.75;12.55;;;;;;;-5.97;100.00;101163.41;5151374;27;19927;-46
2022/12/01 02:36:34;;;;;;;28.50;12.15;;;;;;;-6.19;100.00;101167.34;5151191;27;20133;-46
2022/12/01 02:39:07;;;;;;;26.42;11.93;;;;;;;-5.82;100.00;101197.09;5151879;27;20153;-47
2022/12/01 02:41:39;;;;;;;32.10;11.27;;;;;;;-5.77;100.00;101190.06;5151194;27;20432;-46
2022/12/01 02:44:13;;;;;;;27.88;12.23;;;;;;;-5.87;100.00;101167.50;5151335;27;20055;-46
2022/12/01 02:46:44;;;;;;;30.83;12.50;;;;;;;-6.03;100.00;101161.59;5151087;27;20477;-47
2022/12/01 02:49:15;;;;;;;27.08;11.02;;;;;;;-6.31;100.00;101159.13;5151567;27;20058;-47
2022/12/01 02:51:44;;;;;;;26.48;11.23;;;;;;;-5.93;100.00;101191.38;5151298;27;20054;-47
2022/12/01 02:54:12;;;;;;;36.38;13.38;;;;;;;-5.83;100.00;101193.59;5150907;27;20051;-49
2022/12/01 02:56:39;;;;;;;27.52;11.90;;;;;;;-6.01;100.00;101178.22;5151228;27;20046;-47
2022/12/01 02:59:09;;;;;;;31.70;12.27;;;;;;;-6.26;100.00;101187.88;5150901;27;20050;-47
2022/12/01 03:01:52;;;;;;;29.88;12.07;;;;;;;-6.37;100.00;101175.94;5151156;27;20042;-47
2022/12/01 03:04:44;;;;;;;27.35;11.38;;;;;;;-5.89;100.00;101210.44;5151041;27;20137;-47
2022/12/01 03:07:36;;;;;;;29.85;11.38;;;;;;;-5.84;100.00;101207.16;5150900;27;20652;-47
2022/12/01 03:10:11;;;;;;;33.92;12.57;;;;;;;-5.60;100.00;101192.31;5154202;27;20508;-48
2022/12/01 03:12:47;;;;;;;32.47;13.73;;;;;;;-5.60;100.00;101166.41;5154252;27;20047;-47
2022/12/01 03:15:22;;;;;;;29.90;11.85;;;;;;;-5.83;100.00;101124.16;5154340;27;20046;-46
2022/12/01 03:17:56;;;;;;;29.60;11.90;;;;;;;-5.63;100.00;101120.59;5154614;27;20391;-46
2022/12/01 03:20:24;;;;;;;;;;;;;;;-5.36;100.00;101116.81;5154626;27;20107;-48
2022/12/01 03:22:58;;;;;;;29.30;12.30;;;;;;;-5.68;100.00;101076.63;5154284;27;20021;-46
2022/12/01 03:25:26;;;;;;;33.85;12.27;;;;;;;-5.67;100.00;101075.56;5154544;27;20078;-46
2022/12/01 03:27:55;;;;;;;22.20;9.10;;;;;;;-5.74;100.00;101077.47;5154303;27;20054;-47
2022/12/01 03:30:23;;;;;;;32.92;13.25;;;;;;;-5.99;100.00;101081.88;5154022;27;20050;-47
2022/12/01 03:32:56;;;;;;;28.80;11.23;;;;;;;-5.75;100.00;101107.06;5153983;27;20055;-46
2022/12/01 03:35:26;;;;;;;32.35;11.90;;;;;;;-5.52;100.00;101112.75;5154068;27;20532;-47
2022/12/01 03:37:56;;;;;;;39.53;11.30;;;;;;;-5.89;100.00;101076.09;5154099;27;20528;-47
2022/12/01 03:40:26;;;;;;;26.75;10.95;;;;;;;-5.93;100.00;101071.19;5153932;27;20506;-46
2022/12/01 03:42:57;;;;;;;29.38;11.70;;;;;;;-5.61;100.00;101091.81;5153848;27;20055;-46
2022/12/01 03:45:30;;;;;;;33.65;11.98;;;;;;;-6.26;100.00;101036.56;5153801;27;20065;-47
2022/12/01 03:47:58;;;;;;;24.75;10.32;;;;;;;-6.06;100.00;101073.06;5154436;27;20513;-48
2022/12/01 03:50:29;;;;;;;33.33;12.27;;;;;;;-5.95;100.00;101075.09;5154421;27;20200;-47
2022/12/01 03:53:05;;;;;;;30.45;10.95;;;;;;;-6.05;100.00;101066.69;5153508;27;20145;-46
2022/12/01 03:55:37;;;;;;;29.45;12.05;;;;;;;-6.06;100.00;101065.06;5154145;27;20136;-47
2022/12/01 03:58:08;;;;;;;32.30;12.85;;;;;;;-5.95;100.00;101069.75;5153799;27;20050;-47
2022/12/01 04:00:35;;;;;;;30.85;12.77;;;;;;;-5.92;100.00;101061.28;5153959;27;20095;-47
2022/12/01 04:03:03;;;;;;;30.70;13.50;;;;;;;-6.14;100.00;101054.59;5153744;27;20054;-46
2022/12/01 04:05:31;;;;;;;33.13;12.93;;;;;;;-6.07;100.00;101074.91;5153711;27;20094;-47
2022/12/01 04:07:57;;;;;;;33.75;13.07;;;;;;;-5.71;100.00;101094.94;5153483;27;20085;-47
2022/12/01 04:10:24;;;;;;;31.98;13.50;;;;;;;-5.84;100.00;101052.22;5153433;27;20050;-46
2022/12/01 04:12:50;;;;;;;33.45;13.25;;;;;;;-6.00;100.00;101051.69;5153500;27;20055;-48
2022/12/01 04:15:17;;;;;;;29.08;11.82;;;;;;;-6.00;100.00;101070.38;5153325;27;20047;-46
2022/12/01 04:17:43;;;;;;;25.63;11.13;;;;;;;-6.30;100.00;101062.00;5153897;27;20408;-48
2022/12/01 04:20:13;;;;;;;28.33;12.00;;;;;;;-6.04;100.00;101079.00;5152998;27;20050;-47
2022/12/01 04:22:39;;;;;;;34.88;12.88;;;;;;;-6.10;100.00;101082.50;5153694;27;20059;-46
2022/12/01 04:25:06;;;;;;;26.77;11.50;;;;;;;-6.24;100.00;101073.69;5153049;27;20501;-47
2022/12/01 04:27:34;;;;;;;27.38;12.20;;;;;;;-6.68;100.00;101080.50;5153445;27;20075;-46
2022/12/01 04:30:01;;;;;;;26.85;11.55;;;;;;;-6.29;100.00;101125.03;5153168;27;20056;-46
2022/12/01 04:32:27;;;;;;;30.75;12.10;;;;;;;-6.13;100.00;101131.81;5153238;27;20050;-47
2022/12/01 04:34:53;;;;;;;29.05;12.63;;;;;;;-6.16;100.00;101133.06;5152944;27;20389;-46
2022/12/01 04:37:20;;;;;;;30.05;12.85;;;;;;;-6.04;100.00;101137.75;5152978;27;20152;-47
2022/12/01 04:39:46;;;;;;;32.53;11.55;;;;;;;-5.98;100.00;101139.59;5153360;27;20090;-46
2022/12/01 04:42:13;;;;;;;32.58;13.43;;;;;;;-6.20;100.00;101136.31;5153105;27;20046;-46
2022/12/01 04:44:39;;;;;;;32.10;13.20;;;;;;;-6.41;100.00;101132.03;5153605;27;20047;-47
2022/12/01 04:47:06;;;;;;;37.25;13.88;;;;;;;-6.35;100.00;101147.22;5152998;27;20042;-48
2022/12/01 04:49:33;;;;;;;38.03;13.38;;;;;;;-6.23;100.00;101182.97;5153453;27;20409;-47
2022/12/01 04:52:00;;;;;;;41.70;16.88;;;;;;;-6.19;100.00;101181.50;5152854;27;20483;-46
2022/12/01 04:54:27;;;;;;;42.25;14.40;;;;;;;-6.13;100.00;101197.72;5153252;27;20102;-46
2022/12/01 04:56:53;;;;;;;22.13;10.07;;;;;;;-6.23;100.00;101182.97;5152871;27;20522;-47
2022/12/01 04:59:19;;;;;;;31.67;11.98;;;;;;;-5.91;100.00;101173.25;5152883;27;20043;-47
2022/12/01 05:01:46;;;;;;;33.22;12.43;;;;;;;-6.04;100.00;101145.75;5152671;27;20466;-46
2022/12/01 05:04:13;;;;;;;38.17;12.77;;;;;;;-6.09;100.00;101126.88;5152545;27;20122;-47
2022/12/01 05:06:40;;;;;;;34.55;13.70;;;;;;;-5.96;100.00;101121.53;5152337;27;20501;-47
2022/12/01 05:09:07;;;;;;;36.30;14.00;;;;;;;-6.26;100.00;101095.28;5152625;27;20073;-47
2022/12/01 05:11:34;;;;;;;34.83;11.60;;;;;;;-6.68;100.00;101101.84;5152504;27;20043;-47
2022/12/01 05:14:01;;;;;;;34.47;12.73;;;;;;;-6.17;100.00;101159.94;5151696;27;20195;-46
2022/12/01 05:16:30;;;;;;;34.10;12.93;;;;;;;-5.91;100.00;101165.22;5152239;27;20069;-48
2022/12/01 05:21:41;;;;;;;38.38;11.77;;;;;;;-6.22;100.00;101133.88;5117581;27;20054;-48
2022/12/01 05:24:08;;;;;;;29.08;12.10;;;;;;;-6.06;100.00;101131.81;5152364;27;20086;-49
2022/12/01 05:26:36;;;;;;;34.55;14.48;;;;;;;-6.27;100.00;101127.50;5152426;27;20051;-47
2022/12/01 05:29:02;;;;;;;37.38;14.32;;;;;;;-6.02;100.00;101139.19;5152141;27;20520;-46
2022/12/01 05:31:29;;;;;;;40.17;15.48;;;;;;;-5.98;100.00;101137.75;5150882;27;20054;-47
2022/12/01 05:33:55;;;;;;;30.65;13.60;;;;;;;-5.84;100.00;101133.16;5152206;27;20054;-47
2022/12/01 05:36:21;;;;;;;30.23;11.98;;;;;;;-5.55;100.00;101120.38;5151994;27;20433;-47
2022/12/01 05:38:48;;;;;;;29.50;12.98;;;;;;;-6.42;100.00;101056.47;5152029;27;20095;-47
2022/12/01 05:41:14;;;;;;;31.98;13.05;;;;;;;-6.29;100.00;101074.34;5151774;27;20059;-48
2022/12/01 05:43:41;;;;;;;34.83;14.00;;;;;;;-6.02;100.00;101107.16;5152202;27;20497;-47
2022/12/01 05:46:08;;;;;;;26.88;11.70;;;;;;;-6.21;100.00;101084.78;5151660;27;20528;-47
2022/12/01 05:48:34;;;;;;;38.85;13.57;;;;;;;-6.36;100.00;101073.53;5152017;27;20134;-47
2022/12/01 05:51:08;;;;;;;34.22;14.02;;;;;;;-5.86;100.00;101105.88;5151676;27;20053;-48
2022/12/01 05:53:34;;;;;;;32.92;13.15;;;;;;;-6.32;100.00;101050.72;5151780;27;20047;-48
2022/12/01 05:56:00;;;;;;;35.55;12.45;;;;;;;-6.08;100.00;101081.28;5151702;27;20133;-47
2022/12/01 05:58:26;;;;;;;27.98;12.73;;;;;;;-6.43;100.00;101070.84;5151654;27;20179;-47
2022/12/01 06:00:53;;;;;;;32.33;12.98;;;;;;;-6.28;100.00;101089.31;5151668;27;20047;-47
2022/12/01 06:03:20;;;;;;;30.52;12.38;;;;;;;-6.52;100.00;101095.28;5151600;27;20459;-47
2022/12/01 06:05:46;;;;;;;37.30;14.40;;;;;;;-6.20;100.00;101134.50;5151796;27;20046;-48
2022/12/01 06:08:12;;;;;;;34.65;14.43;;;;;;;-6.12;100.00;101138.81;5151484;27;20061;-48
2022/12/01 06:10:38;;;;;;;37.38;15.20;;;;;;;-6.18;100.00;101116.41;5151724;27;20055;-48
2022/12/01 06:13:05;;;;;;;39.05;14.50;;;;;;;-6.10;100.00;101102.00;5151230;27;20051;-47
2022/12/01 06:15:31;;;;;;;37.28;13.45;;;;;;;-6.05;100.00;101096.88;5151170;27;20058;-46
2022/12/01 06:17:59;;;;;;;32.25;14.35;;;;;;;-6.28;100.00;101078.63;5151453;27;20592;-47
2022/12/01 06:20:26;;;;;;;42.63;15.98;;;;;;;-6.44;100.00;101084.38;5151328;27;20085;-46
2022/12/01 06:22:52;;;;;;;44.42;16.20;;;;;;;-6.41;100.00;101108.00;5151148;27;20141;-46
2022/12/01 06:25:18;;;;;;;48.58;16.27;;;;;;;-6.50;100.00;101123.38;5151234;27;20069;-48
2022/12/01 06:27:44;;;;;;;31.95;11.25;;;;;;;-6.39;100.00;101140.66;5151014;27;20501;-46
2022/12/01 06:30:12;;;;;;;33.00;12.85;;;;;;;-6.21;100.00;101151.53;5150856;27;20050;-46
2022/12/01 06:32:38;;;;;;;33.78;12.90;;;;;;;-6.29;100.00;101132.25;5151135;27;20099;-47
2022/12/01 06:35:07;;;;;;;37.67;13.77;;;;;;;-6.59;100.00;101126.47;5150963;27;20046;-47
2022/12/01 06:37:33;;;;;;;33.28;14.30;;;;;;;-6.50;100.00;101126.03;5151145;27;20054;-50
2022/12/01 06:39:59;;;;;;;35.65;13.18;;;;;;;-6.98;100.00;101118.19;5150902;27;20042;-49
2022/12/01 06:42:28;;;;;;;29.80;10.60;;;;;;;-6.05;100.00;101171.66;5152550;27;20049;-51
2022/12/01 06:44:54;;;;;;;36.08;13.75;;;;;;;-6.33;100.00;101117.63;5154706;27;20099;-48
2022/12/01 06:47:21;;;;;;;36.75;14.95;;;;;;;-6.46;100.00;101087.28;5154855;27;20050;-49
2022/12/01 06:49:47;;;;;;;35.80;13.20;;;;;;;-6.03;100.00;101102.00;5154725;27;20133;-47
2022/12/01 06:52:14;;;;;;;35.53;14.70;;;;;;;-6.38;100.00;101053.41;5154510;27;20166;-47
2022/12/01 06:54:40;;;;;;;39.75;16.10;;;;;;;-6.54;100.00;101043.97;5154499;27;20163;-47
2022/12/01 06:57:06;;;;;;;39.58;14.07;;;;;;;-6.61;100.00;101065.31;5154459;27;20107;-47
2022/12/01 06:59:33;;;;;;;40.97;15.35;;;;;;;-6.52;100.00;101072.09;5154716;27;20145;-47
2022/12/01 07:01:59;;;;;;;43.60;16.17;;;;;;;-6.76;100.00;101059.38;5154559;27;20059;-49
2022/12/01 07:04:25;;;;;;;37.95;15.30;;;;;;;-6.57;100.00;101074.53;5154486;27;20062;-49
2022/12/01 07:06:52;;;;;;;45.30;15.63;;;;;;;-6.30;100.00;101058.50;5154343;27;20043;-48
2022/12/01 07:09:19;;;;;;;57.30;13.70;;;;;;;-6.48;100.00;101049.28;5154603;27;20051;-47
2022/12/01 07:11:45;;;;;;;38.28;15.60;;;;;;;-6.42;100.00;101028.97;5154175;27;20103;-51
2022/12/01 07:14:18;;;;;;;42.92;16.52;;;;;;;-6.90;100.00;100979.34;5154143;27;20059;-49
2022/12/01 07:16:44;;;;;;;46.83;16.80;;;;;;;-6.33;100.00;101029.56;5153820;27;20054;-48
2022/12/01 07:19:11;;;;;;;41.50;16.80;;;;;;;-6.21;100.00;101007.38;5153600;27;20474;-49
2022/12/01 07:21:37;;;;;;;36.30;15.68;;;;;;;-6.39;100.00;100993.88;5153802;27;20148;-46
2022/12/01 07:24:04;;;;;;;41.40;16.70;;;;;;;-6.18;100.00;101001.59;5154303;27;20142;-48
2022/12/01 07:26:31;;;;;;;37.55;15.95;;;;;;;-5.98;100.00;100980.19;5154244;27;20527;-47
2022/12/01 07:28:57;;;;;;;56.15;16.55;;;;;;;-5.70;100.00;100934.44;5153929;27;20603;-50
2022/12/01 07:31:23;;;;;;;47.72;17.25;;;;;;;-5.75;100.00;100878.13;5153868;27;20107;-47
2022/12/01 07:33:50;;;;;;;41.45;17.52;;;;;;;-5.82;100.00;100817.78;5153758;27;20532;-49
2022/12/01 07:36:17;;;;;;;37.17;15.10;;;;;;;-5.34;100.00;100801.16;5154066;27;20409;-48
2022/12/01 07:38:43;;;;;;;41.03;16.35;;;;;;;-5.45;100.00;100751.91;5153619;27;20047;-46
2022/12/01 07:41:11;;;;;;;47.50;15.30;;;;;;;-5.27;100.00;100721.69;5153706;27;20049;-47
2022/12/01 07:43:39;;;;;;;46.67;15.90;;;;;;;-5.25;100.00;100668.81;5153542;27;20047;-48
2022/12/01 07:46:07;;;;;;;47.30;15.32;;;;;;;-4.99;100.00;100641.75;5153825;27;20050;-48
2022/12/01 07:48:34;;;;;;;41.75;16.58;;;;;;;-5.28;100.00;100557.00;5153559;27;20097;-48
2022/12/01 07:51:00;;;;;;;32.72;14.18;;;;;;;-5.70;100.00;100509.66;5153326;27;20562;-47
2022/12/01 07:53:27;;;;;;;37.65;15.38;;;;;;;-5.67;100.00;100530.53;5152404;27;20055;-46
2022/12/01 07:55:53;;;;;;;43.22;17.15;;;;;;;-5.76;100.00;100534.59;5153402;27;20050;-48
2022/12/01 07:58:19;;;;;;;38.63;15.55;;;;;;;-5.85;100.00;100497.72;5153772;27;20610;-50
2022/12/01 08:00:46;;;;;;;45.88;15.85;;;;;;;-5.70;100.00;100498.97;5153205;27;20133;-48
2022/12/01 08:03:13;;;;;;;36.97;15.27;;;;;;;-5.52;100.00;100499.97;5153716;27;20191;-46
2022/12/01 08:05:39;;;;;;;35.67;15.00;;;;;;;-5.54;100.00;100457.41;5153389;27;20068;-47
2022/12/01 08:08:06;;;;;;;41.17;15.50;;;;;;;-5.84;100.00;100417.34;5153517;27;20050;-47
2022/12/01 08:10:32;;;;;;;45.25;17.58;;;;;;;-5.69;100.00;100433.81;5153441;27;20054;-49
2022/12/01 08:12:58;;;;;;;36.45;12.85;;;;;;;-5.48;100.00;100472.56;5153189;27;20055;-48
2022/12/01 08:15:25;;;;;;;41.25;15.75;;;;;;;-5.57;100.00;100481.91;5153140;27;20053;-47
2022/12/01 08:17:52;;;;;;;37.58;14.65;;;;;;;-5.55;100.00;100465.69;5152981;27;20539;-46
2022/12/01 08:20:20;;;;;;;53.58;18.13;;;;;;;-5.49;100.00;100459.44;5153091;27;20177;-47
2022/12/01 08:22:46;;;;;;;35.40;13.95;;;;;;;-5.23;100.00;100471.59;5153009;27;20067;-48
2022/12/01 08:25:13;;;;;;;41.45;14.60;;;;;;;-4.90;100.00;100460.34;5153344;27;20050;-47
2022/12/01 08:27:39;;;;;;;35.53;14.02;;;;;;;-5.14;100.00;100410.56;5152937;27;20050;-49
2022/12/01 08:30:07;;;;;;;36.40;16.30;;;;;;;-5.41;100.00;100343.38;5152998;27;20138;-47
2022/12/01 08:32:33;;;;;;;43.25;16.95;;;;;;;-4.66;100.00;100372.09;5152570;27;20050;-50
2022/12/01 08:35:00;;;;;;;41.72;15.98;;;;;;;-4.87;100.00;100317.31;5152716;27;20046;-51
2022/12/01 08:37:26;;;;;;;43.33;17.40;;;;;;;-5.11;100.00;100268.41;5152863;27;20050;-47
2022/12/01 08:39:53;;;;;;;38.78;15.15;;;;;;;-5.04;100.00;100269.09;5153020;27;20568;-51
2022/12/01 08:42:19;;;;;;;42.95;15.48;;;;;;;-4.91;100.00;100287.56;5152920;27;20047;-47
2022/12/01 08:44:46;;;;;;;33.85;13.55;;;;;;;-4.76;100.00;100258.44;5152879;27;20054;-48
2022/12/01 08:47:12;;;;;;;37.38;15.20;;;;;;;-4.75;100.00;100237.84;5153501;27;20244;-50
2022/12/01 08:49:38;;;;;;;37.13;12.48;;;;;;;-4.64;100.00;100245.00;5152749;27;20761;-49
2022/12/01 08:52:05;;;;;;;42.17;14.95;;;;;;;-5.17;100.00;100181.09;5152891;27;20129;-55
2022/12/01 08:54:32;;;;;;;35.65;14.48;;;;;;;-5.23;100.00;100213.09;5152444;27;20195;-52
2022/12/01 08:56:58;;;;;;;39.22;14.50;;;;;;;-5.28;100.00;100207.63;5152836;27;20417;-49
2022/12/01 08:59:24;;;;;;;35.75;15.60;;;;;;;-5.03;100.00;100203.84;5152555;27;20078;-52
2022/12/01 09:01:53;;;;;;;30.23;14.45;;;;;;;-4.90;100.00;100216.94;5152478;27;20119;-55
2022/12/01 09:04:21;;;;;;;35.75;14.95;;;;;;;-4.75;100.00;100201.22;5152739;27;20062;-53
2022/12/01 09:06:49;;;;;;;31.73;13.00;;;;;;;-4.61;100.00;100187.53;5152805;27;20359;-52
2022/12/01 09:09:17;;;;;;;35.80;13.60;;;;;;;-5.03;100.00;100156.56;5152567;27;20489;-57
2022/12/01 09:11:45;;;;;;;35.35;14.35;;;;;;;-5.22;100.00;100139.88;5152360;27;20506;-56
2022/12/01 09:14:12;;;;;;;36.95;14.10;;;;;;;-4.82;100.00;100171.13;5152310;27;20051;-56
2022/12/01 09:16:39;;;;;;;46.22;16.02;;;;;;;-4.76;100.00;100169.34;5152414;27;20429;-54
2022/12/01 09:19:05;;;;;;;38.28;15.38;;;;;;;-5.03;100.00;100151.19;5152317;27;20083;-53
2022/12/01 09:21:33;;;;;;;36.00;14.93;;;;;;;-4.82;100.00;100147.03;5152400;27;20050;-51
2022/12/01 09:24:00;;;;;;;38.17;15.10;;;;;;;-5.13;100.00;100147.50;5152462;27;20051;-55
2022/12/01 09:26:28;;;;;;;36.78;14.25;;;;;;;-5.03;100.00;100166.41;5152347;27;20047;-53
2022/12/01 09:28:56;;;;;;;34.53;14.65;;;;;;;-5.02;100.00;100176.88;5152020;27;20051;-52
2022/12/01 09:31:23;;;;;;;35.60;14.32;;;;;;;-5.05;100.00;100160.50;5152087;27;20047;-50
2022/12/01 09:33:54;;;;;;;33.35;14.05;;;;;;;-5.29;100.00;100135.72;5152063;27;20527;-51
2022/12/01 09:36:21;;;;;;;42.45;14.15;;;;;;;-5.11;100.00;100126.69;5151996;27;20050;-54
2022/12/01 09:38:47;;;;;;;30.17;12.30;;;;;;;-4.94;100.00;100158.84;5152005;27;20049;-54
2022/12/01 09:41:18;;;;;;;42.83;15.35;;;;;;;-4.78;100.00;100153.53;5151947;27;20065;-54
2022/12/01 09:43:50;;;;;;;33.58;14.38;;;;;;;-4.89;100.00;100157.06;5151785;27;20497;-56
2022/12/01 09:46:21;;;;;;;33.20;13.95;;;;;;;-5.02;100.00;100142.13;5151774;27;20089;-52
2022/12/01 09:48:50;;;;;;;47.33;15.13;;;;;;;-4.95;100.00;100120.59;5152270;27;20235;-56
2022/12/01 09:51:20;;;;;;;40.45;13.75;;;;;;;-5.03;100.00;100108.41;5152136;27;20047;-53
2022/12/01 09:53:49;;;;;;;40.20;16.65;;;;;;;-4.73;100.00;100118.06;5151617;27;20051;-53
2022/12/01 09:56:19;;;;;;;38.42;16.17;;;;;;;-4.68;100.00;100110.09;5151807;27;20046;-54
2022/12/01 09:58:50;;;;;;;36.78;14.25;;;;;;;-4.90;100.00;100095.78;5151668;27;20050;-51
2022/12/01 10:01:19;;;;;;;33.55;14.65;;;;;;;-5.14;100.00;100079.03;5151593;27;20163;-50
2022/12/01 10:03:51;;;;;;;40.55;15.35;;;;;;;-4.76;100.00;100081.06;5150636;27;20056;-56
2022/12/01 10:06:24;;;;;;;36.00;15.48;;;;;;;-4.58;100.00;100069.31;5148901;27;20061;-56
2022/12/01 10:08:59;;;;;;;50.78;17.00;;;;;;;-4.88;100.00;100040.19;5150499;27;20058;-55
